createdAt,value
2022-07-25T00:00:12.506Z,20.90
2022-07-25T00:00:58.425Z,20.90
2022-07-25T00:01:44.580Z,20.90
2022-07-25T00:02:30.406Z,20.90
2022-07-25T00:03:18.551Z,20.90
2022-07-25T00:04:02.573Z,20.90
2022-07-25T00:04:48.579Z,20.90
2022-07-25T00:05:37.760Z,20.90
2022-07-25T00:06:20.466Z,20.90
2022-07-25T00:07:06.443Z,20.90
2022-07-25T00:07:52.422Z,20.90
2022-07-25T00:08:38.432Z,20.90
2022-07-25T00:09:24.473Z,20.90
2022-07-25T00:10:10.443Z,20.90
2022-07-25T00:10:56.549Z,20.90
2022-07-25T00:11:42.484Z,20.90
2022-07-25T00:12:28.492Z,20.90
2022-07-25T00:13:14.454Z,20.90
2022-07-25T00:14:15.756Z,20.90
2022-07-25T00:14:46.511Z,20.90
2022-07-25T00:15:32.536Z,20.90
2022-07-25T00:16:18.540Z,20.90
2022-07-25T00:17:04.510Z,20.90
2022-07-25T00:17:50.574Z,20.90
2022-07-25T00:18:36.563Z,20.80
2022-07-25T00:19:22.511Z,20.80
2022-07-25T00:20:08.497Z,20.80
2022-07-25T00:20:54.472Z,20.80
2022-07-25T00:21:40.500Z,20.80
2022-07-25T00:22:26.498Z,20.70
2022-07-25T00:23:12.569Z,20.70
2022-07-25T00:23:58.487Z,20.70
2022-07-25T00:24:44.533Z,20.70
2022-07-25T00:25:30.495Z,20.70
2022-07-25T00:26:16.537Z,20.70
2022-07-25T00:27:02.492Z,20.70
2022-07-25T00:27:48.479Z,20.70
2022-07-25T00:28:34.609Z,20.70
2022-07-25T00:29:20.513Z,20.70
2022-07-25T00:30:06.569Z,20.70
2022-07-25T00:30:52.545Z,20.70
2022-07-25T00:31:38.604Z,20.70
2022-07-25T00:32:24.494Z,20.70
2022-07-25T00:33:10.530Z,20.70
2022-07-25T00:33:56.610Z,20.60
2022-07-25T00:34:42.636Z,20.60
2022-07-25T00:35:28.554Z,20.60
2022-07-25T00:36:17.055Z,20.60
2022-07-25T00:37:00.555Z,20.60
2022-07-25T00:37:46.672Z,20.60
2022-07-25T00:38:32.521Z,20.60
2022-07-25T00:39:18.543Z,20.60
2022-07-25T00:40:04.510Z,20.60
2022-07-25T00:40:54.696Z,20.50
2022-07-25T00:41:36.576Z,20.50
2022-07-25T00:42:22.636Z,20.50
2022-07-25T00:43:08.604Z,20.50
2022-07-25T00:43:54.537Z,20.50
2022-07-25T00:44:40.527Z,20.50
2022-07-25T00:45:26.625Z,20.40
2022-07-25T00:46:12.760Z,20.40
2022-07-25T00:46:58.676Z,20.40
2022-07-25T00:47:44.539Z,20.40
2022-07-25T00:48:30.625Z,20.40
2022-07-25T00:49:16.632Z,20.40
2022-07-25T00:50:02.658Z,20.40
2022-07-25T00:50:48.594Z,20.40
2022-07-25T00:51:34.682Z,20.40
2022-07-25T00:52:20.535Z,20.40
2022-07-25T00:53:06.117Z,20.40
2022-07-25T00:53:52.561Z,20.40
2022-07-25T00:54:38.589Z,20.40
2022-07-25T00:55:24.580Z,20.40
2022-07-25T00:56:10.582Z,20.40
2022-07-25T00:56:56.601Z,20.40
2022-07-25T00:57:42.570Z,20.40
2022-07-25T00:58:28.625Z,20.40
2022-07-25T00:59:14.576Z,20.30
2022-07-25T01:00:00.892Z,20.30
2022-07-25T01:00:46.666Z,20.30
2022-07-25T01:01:32.654Z,20.30
2022-07-25T01:02:18.651Z,20.30
2022-07-25T01:03:04.699Z,20.30
2022-07-25T01:03:50.727Z,20.30
2022-07-25T01:04:36.611Z,20.30
2022-07-25T01:05:22.604Z,20.20
2022-07-25T01:06:08.649Z,20.20
2022-07-25T01:06:54.606Z,20.20
2022-07-25T01:07:40.703Z,20.20
2022-07-25T01:08:26.617Z,20.20
2022-07-25T01:09:12.722Z,20.20
2022-07-25T01:09:58.605Z,20.20
2022-07-25T01:10:44.631Z,20.20
2022-07-25T01:11:30.711Z,20.20
2022-07-25T01:12:16.658Z,20.20
2022-07-25T01:13:02.661Z,20.20
2022-07-25T01:13:48.612Z,20.20
2022-07-25T01:14:34.640Z,20.10
2022-07-25T01:15:20.718Z,20.10
2022-07-25T01:16:06.719Z,20.10
2022-07-25T01:16:52.721Z,20.10
2022-07-25T01:17:38.689Z,20.10
2022-07-25T01:18:24.623Z,20.10
2022-07-25T01:19:10.642Z,20.10
2022-07-25T01:19:56.659Z,20.10
2022-07-25T01:20:42.675Z,20.10
2022-07-25T01:21:28.653Z,20.00
2022-07-25T01:22:14.851Z,20.00
2022-07-25T01:23:00.635Z,20.00
2022-07-25T01:23:46.700Z,20.00
2022-07-25T01:24:32.642Z,20.00
2022-07-25T01:25:18.641Z,20.00
2022-07-25T01:26:04.701Z,20.00
2022-07-25T01:26:50.917Z,20.00
2022-07-25T01:27:36.849Z,20.00
2022-07-25T01:28:22.735Z,20.00
2022-07-25T01:29:08.662Z,20.00
2022-07-25T01:29:54.683Z,20.00
2022-07-25T01:30:40.724Z,20.00
2022-07-25T01:31:26.807Z,20.00
2022-07-25T01:32:12.747Z,20.00
2022-07-25T01:32:58.691Z,20.00
2022-07-25T01:33:44.683Z,20.00
2022-07-25T01:34:30.699Z,20.00
2022-07-25T01:35:16.668Z,20.00
2022-07-25T01:36:02.778Z,20.00
2022-07-25T01:36:48.710Z,19.90
2022-07-25T01:37:34.761Z,19.90
2022-07-25T01:38:20.702Z,19.90
2022-07-25T01:39:06.706Z,19.90
2022-07-25T01:40:08.204Z,19.80
2022-07-25T01:40:38.845Z,19.80
2022-07-25T01:41:24.786Z,19.80
2022-07-25T01:42:15.763Z,19.80
2022-07-25T01:42:56.697Z,19.80
2022-07-25T01:43:42.790Z,19.80
2022-07-25T01:44:28.718Z,19.70
2022-07-25T01:45:15.367Z,19.70
2022-07-25T01:46:00.861Z,19.70
2022-07-25T01:46:46.877Z,19.70
2022-07-25T01:47:32.701Z,19.60
2022-07-25T01:48:18.832Z,19.60
2022-07-25T01:49:04.882Z,19.60
2022-07-25T01:49:50.819Z,19.60
2022-07-25T01:50:36.783Z,19.60
2022-07-25T01:51:22.705Z,19.60
2022-07-25T01:52:08.811Z,19.60
2022-07-25T01:52:54.777Z,19.60
2022-07-25T01:53:40.783Z,19.60
2022-07-25T01:54:26.769Z,19.60
2022-07-25T01:55:13.002Z,19.50
2022-07-25T01:55:58.300Z,19.50
2022-07-25T01:56:46.876Z,19.50
2022-07-25T01:57:31.356Z,19.50
2022-07-25T01:58:16.738Z,19.50
2022-07-25T01:59:02.774Z,19.40
2022-07-25T01:59:48.770Z,19.40
2022-07-25T02:00:34.917Z,19.40
2022-07-25T02:01:21.650Z,19.40
2022-07-25T02:02:06.749Z,19.40
2022-07-25T02:02:52.751Z,19.40
2022-07-25T02:03:38.819Z,19.40
2022-07-25T02:04:24.799Z,19.40
2022-07-25T02:05:10.842Z,19.40
2022-07-25T02:05:56.828Z,19.40
2022-07-25T02:06:42.818Z,19.40
2022-07-25T02:07:28.850Z,19.40
2022-07-25T02:08:15.261Z,19.30
2022-07-25T02:09:00.914Z,19.30
2022-07-25T02:09:46.830Z,19.30
2022-07-25T02:10:32.826Z,19.30
2022-07-25T02:11:18.780Z,19.30
2022-07-25T02:12:04.872Z,19.30
2022-07-25T02:12:50.950Z,19.30
2022-07-25T02:13:36.863Z,19.30
2022-07-25T02:14:22.774Z,19.30
2022-07-25T02:15:08.902Z,19.30
2022-07-25T02:15:54.775Z,19.30
2022-07-25T02:16:40.944Z,19.30
2022-07-25T02:17:26.900Z,19.30
2022-07-25T02:18:12.860Z,19.30
2022-07-25T02:18:58.889Z,19.20
2022-07-25T02:19:44.813Z,19.20
2022-07-25T02:20:30.804Z,19.20
2022-07-25T02:21:16.779Z,19.20
2022-07-25T02:22:02.803Z,19.20
2022-07-25T02:22:48.777Z,19.20
2022-07-25T02:23:34.859Z,19.20
2022-07-25T02:24:20.810Z,19.20
2022-07-25T02:25:06.846Z,19.20
2022-07-25T02:25:52.804Z,19.20
2022-07-25T02:26:38.887Z,19.20
2022-07-25T02:27:24.970Z,19.10
2022-07-25T02:28:10.889Z,19.10
2022-07-25T02:28:56.860Z,19.10
2022-07-25T02:29:42.851Z,19.10
2022-07-25T02:30:28.991Z,19.10
2022-07-25T02:31:15.580Z,19.10
2022-07-25T02:32:00.916Z,19.10
2022-07-25T02:32:46.873Z,19.10
2022-07-25T02:33:32.868Z,19.10
2022-07-25T02:34:18.879Z,19.10
2022-07-25T02:35:04.849Z,19.10
2022-07-25T02:35:50.951Z,19.10
2022-07-25T02:36:36.860Z,19.00
2022-07-25T02:37:22.828Z,19.00
2022-07-25T02:38:08.885Z,19.00
2022-07-25T02:38:54.835Z,19.00
2022-07-25T02:39:40.883Z,19.00
2022-07-25T02:40:26.827Z,19.00
2022-07-25T02:41:12.989Z,19.00
2022-07-25T02:41:58.908Z,19.00
2022-07-25T02:42:44.849Z,19.00
2022-07-25T02:43:30.859Z,18.90
2022-07-25T02:44:16.981Z,18.90
2022-07-25T02:45:03.073Z,18.90
2022-07-25T02:45:49.028Z,18.90
2022-07-25T02:46:35.021Z,18.90
2022-07-25T02:47:20.893Z,18.90
2022-07-25T02:48:06.902Z,18.90
2022-07-25T02:48:52.884Z,18.90
2022-07-25T02:49:38.887Z,18.90
2022-07-25T02:50:24.877Z,18.90
2022-07-25T02:51:10.885Z,18.90
2022-07-25T02:51:56.883Z,18.90
2022-07-25T02:52:42.898Z,18.90
2022-07-25T02:54:16.217Z,18.80
2022-07-25T02:55:03.825Z,18.80
2022-07-25T02:55:46.978Z,18.80
2022-07-25T02:56:32.914Z,18.80
2022-07-25T02:57:18.919Z,18.80
2022-07-25T02:58:04.906Z,18.80
2022-07-25T02:58:51.018Z,18.80
2022-07-25T02:59:37.068Z,18.80
2022-07-25T03:00:22.960Z,18.80
2022-07-25T03:01:09.003Z,18.80
2022-07-25T03:01:54.922Z,18.80
2022-07-25T03:02:40.900Z,18.80
2022-07-25T03:03:26.927Z,18.80
2022-07-25T03:04:13.145Z,18.80
2022-07-25T03:04:58.916Z,18.80
2022-07-25T03:05:44.936Z,18.80
2022-07-25T03:06:30.940Z,18.70
2022-07-25T03:07:16.910Z,18.70
2022-07-25T03:08:02.940Z,18.70
2022-07-25T03:08:48.927Z,18.70
2022-07-25T03:09:34.935Z,18.70
2022-07-25T03:10:20.927Z,18.70
2022-07-25T03:11:06.939Z,18.70
2022-07-25T03:11:52.920Z,18.70
2022-07-25T03:12:38.929Z,18.70
2022-07-25T03:13:27.924Z,18.70
2022-07-25T03:14:10.955Z,18.70
2022-07-25T03:14:57.093Z,18.70
2022-07-25T03:15:43.009Z,18.70
2022-07-25T03:16:29.073Z,18.70
2022-07-25T03:17:15.665Z,18.70
2022-07-25T03:18:00.963Z,18.70
2022-07-25T03:18:46.959Z,18.70
2022-07-25T03:19:32.987Z,18.70
2022-07-25T03:20:18.926Z,18.70
2022-07-25T03:21:04.990Z,18.70
2022-07-25T03:21:51.069Z,18.70
2022-07-25T03:22:37.045Z,18.70
2022-07-25T03:23:22.950Z,18.70
2022-07-25T03:24:09.260Z,18.70
2022-07-25T03:24:54.954Z,18.70
2022-07-25T03:25:40.954Z,18.70
2022-07-25T03:26:26.966Z,18.70
2022-07-25T03:27:13.027Z,18.70
2022-07-25T03:27:58.996Z,18.70
2022-07-25T03:28:45.020Z,18.70
2022-07-25T03:29:31.014Z,18.70
2022-07-25T03:30:16.973Z,18.70
2022-07-25T03:31:02.959Z,18.70
2022-07-25T03:31:49.107Z,18.70
2022-07-25T03:32:34.996Z,18.70
2022-07-25T03:33:20.996Z,18.70
2022-07-25T03:34:07.416Z,18.70
2022-07-25T03:34:53.030Z,18.70
2022-07-25T03:35:39.022Z,18.70
2022-07-25T03:36:24.979Z,18.70
2022-07-25T03:37:11.013Z,18.70
2022-07-25T03:37:56.986Z,18.70
2022-07-25T03:38:43.008Z,18.80
2022-07-25T03:39:29.044Z,18.80
2022-07-25T03:40:15.881Z,18.80
2022-07-25T03:41:01.065Z,18.80
2022-07-25T03:41:47.026Z,18.80
2022-07-25T03:42:35.347Z,18.80
2022-07-25T03:43:18.996Z,18.80
2022-07-25T03:44:05.233Z,18.80
2022-07-25T03:44:51.245Z,18.80
2022-07-25T03:45:37.230Z,18.80
2022-07-25T03:46:23.072Z,18.80
2022-07-25T03:47:09.028Z,18.80
2022-07-25T03:47:55.010Z,18.80
2022-07-25T03:48:41.991Z,18.80
2022-07-25T03:49:27.017Z,18.80
2022-07-25T03:50:18.135Z,18.80
2022-07-25T03:51:14.323Z,18.70
2022-07-25T03:51:45.082Z,18.70
2022-07-25T03:52:31.160Z,18.70
2022-07-25T03:53:17.051Z,18.70
2022-07-25T03:54:03.457Z,18.70
2022-07-25T03:54:49.067Z,18.70
2022-07-25T03:55:35.182Z,18.70
2022-07-25T03:56:21.057Z,18.70
2022-07-25T03:57:07.072Z,18.70
2022-07-25T03:57:53.067Z,18.70
2022-07-25T03:58:39.092Z,18.70
2022-07-25T03:59:25.085Z,18.70
2022-07-25T04:00:11.115Z,18.70
2022-07-25T04:00:57.226Z,18.70
2022-07-25T04:01:43.098Z,18.70
2022-07-25T04:02:36.385Z,18.60
2022-07-25T04:03:15.721Z,18.60
2022-07-25T04:04:01.596Z,18.60
2022-07-25T04:04:47.103Z,18.60
2022-07-25T04:05:33.108Z,18.60
2022-07-25T04:06:19.153Z,18.60
2022-07-25T04:07:05.134Z,18.60
2022-07-25T04:07:51.204Z,18.60
2022-07-25T04:08:37.237Z,18.60
2022-07-25T04:09:23.107Z,18.60
2022-07-25T04:10:09.099Z,18.60
2022-07-25T04:10:55.190Z,18.60
2022-07-25T04:11:41.118Z,18.60
2022-07-25T04:12:27.226Z,18.60
2022-07-25T04:13:13.222Z,18.50
2022-07-25T04:13:59.171Z,18.50
2022-07-25T04:14:45.124Z,18.50
2022-07-25T04:15:31.150Z,18.50
2022-07-25T04:16:22.224Z,18.50
2022-07-25T04:17:03.171Z,18.50
2022-07-25T04:17:49.116Z,18.50
2022-07-25T04:18:35.200Z,18.50
2022-07-25T04:19:21.162Z,18.50
2022-07-25T04:20:07.439Z,18.60
2022-07-25T04:20:53.219Z,18.60
2022-07-25T04:21:39.140Z,18.60
2022-07-25T04:22:25.314Z,18.60
2022-07-25T04:23:11.415Z,18.60
2022-07-25T04:23:57.206Z,18.60
2022-07-25T04:24:43.134Z,18.60
2022-07-25T04:25:29.289Z,18.60
2022-07-25T04:26:15.861Z,18.60
2022-07-25T04:27:01.233Z,18.60
2022-07-25T04:27:47.235Z,18.60
2022-07-25T04:28:33.170Z,18.70
2022-07-25T04:29:19.154Z,18.70
2022-07-25T04:30:05.234Z,18.70
2022-07-25T04:30:51.314Z,18.70
2022-07-25T04:31:37.345Z,18.70
2022-07-25T04:32:23.677Z,18.70
2022-07-25T04:33:09.301Z,18.70
2022-07-25T04:33:55.220Z,18.70
2022-07-25T04:34:41.223Z,18.70
2022-07-25T04:35:27.215Z,18.80
2022-07-25T04:36:13.306Z,18.80
2022-07-25T04:36:59.244Z,18.80
2022-07-25T04:37:45.237Z,18.90
2022-07-25T04:38:31.272Z,18.90
2022-07-25T04:39:17.180Z,18.90
2022-07-25T04:40:03.197Z,18.90
2022-07-25T04:40:49.189Z,18.90
2022-07-25T04:41:35.310Z,19.00
2022-07-25T04:42:21.215Z,19.00
2022-07-25T04:43:07.183Z,19.00
2022-07-25T04:43:53.214Z,19.00
2022-07-25T04:44:39.207Z,19.00
2022-07-25T04:45:25.269Z,19.00
2022-07-25T04:46:11.240Z,19.00
2022-07-25T04:46:57.259Z,19.00
2022-07-25T04:47:43.235Z,19.00
2022-07-25T04:48:29.313Z,19.10
2022-07-25T04:49:15.694Z,19.10
2022-07-25T04:50:01.245Z,19.10
2022-07-25T04:50:47.299Z,19.10
2022-07-25T04:51:33.282Z,19.10
2022-07-25T04:52:19.271Z,19.10
2022-07-25T04:53:05.275Z,19.10
2022-07-25T04:53:51.384Z,19.10
2022-07-25T04:54:37.373Z,19.20
2022-07-25T04:55:23.235Z,19.20
2022-07-25T04:56:09.236Z,19.20
2022-07-25T04:56:55.294Z,19.20
2022-07-25T04:57:41.226Z,19.20
2022-07-25T04:58:27.235Z,19.20
2022-07-25T04:59:13.441Z,19.20
2022-07-25T04:59:59.252Z,19.30
2022-07-25T05:00:45.401Z,19.30
2022-07-25T05:01:31.316Z,19.30
2022-07-25T05:02:17.445Z,19.30
2022-07-25T05:03:03.375Z,19.30
2022-07-25T05:03:50.583Z,19.40
2022-07-25T05:04:35.354Z,19.40
2022-07-25T05:05:22.284Z,19.40
2022-07-25T05:06:07.290Z,19.40
2022-07-25T05:06:53.265Z,19.50
2022-07-25T05:07:39.256Z,19.50
2022-07-25T05:08:25.325Z,19.50
2022-07-25T05:09:11.292Z,19.50
2022-07-25T05:09:57.310Z,19.50
2022-07-25T05:10:43.344Z,19.60
2022-07-25T05:11:29.308Z,19.60
2022-07-25T05:12:15.820Z,19.60
2022-07-25T05:13:01.427Z,19.60
2022-07-25T05:13:47.386Z,19.70
2022-07-25T05:14:33.350Z,19.70
2022-07-25T05:15:19.400Z,19.70
2022-07-25T05:16:05.337Z,19.80
2022-07-25T05:16:51.431Z,19.80
2022-07-25T05:17:37.383Z,19.80
2022-07-25T05:18:23.286Z,19.90
2022-07-25T05:19:09.299Z,19.90
2022-07-25T05:19:55.317Z,19.90
2022-07-25T05:20:40.837Z,19.90
2022-07-25T05:21:27.338Z,20.00
2022-07-25T05:22:13.440Z,20.10
2022-07-25T05:22:59.320Z,20.10
2022-07-25T05:23:45.357Z,20.10
2022-07-25T05:24:31.348Z,20.10
2022-07-25T05:25:17.316Z,20.20
2022-07-25T05:26:03.341Z,20.20
2022-07-25T05:26:49.303Z,20.20
2022-07-25T05:27:35.394Z,20.30
2022-07-25T05:28:21.387Z,20.30
2022-07-25T05:29:07.420Z,20.40
2022-07-25T05:29:53.376Z,20.40
2022-07-25T05:30:39.936Z,20.50
2022-07-25T05:31:25.636Z,20.50
2022-07-25T05:32:11.335Z,20.60
2022-07-25T05:32:57.434Z,20.60
2022-07-25T05:33:43.399Z,20.70
2022-07-25T05:34:29.387Z,20.70
2022-07-25T05:35:15.902Z,20.80
2022-07-25T05:36:01.805Z,20.80
2022-07-25T05:36:47.614Z,20.90
2022-07-25T05:37:33.436Z,20.90
2022-07-25T05:38:22.440Z,21.00
2022-07-25T05:39:05.334Z,21.00
2022-07-25T05:39:51.493Z,21.10
2022-07-25T05:40:37.421Z,21.20
2022-07-25T05:41:23.390Z,21.30
2022-07-25T05:42:09.354Z,21.40
2022-07-25T05:42:58.278Z,21.50
2022-07-25T05:43:41.378Z,21.60
2022-07-25T05:44:27.393Z,21.70
2022-07-25T05:45:13.689Z,21.80
2022-07-25T05:45:59.366Z,21.90
2022-07-25T05:46:45.509Z,21.90
2022-07-25T05:47:31.362Z,22.00
2022-07-25T05:48:17.397Z,22.10
2022-07-25T05:49:03.470Z,22.10
2022-07-25T05:49:49.428Z,22.20
2022-07-25T05:50:35.501Z,22.20
2022-07-25T05:51:21.413Z,22.30
2022-07-25T05:52:12.531Z,22.40
2022-07-25T05:52:53.423Z,22.40
2022-07-25T05:53:39.432Z,22.50
2022-07-25T05:54:25.427Z,22.60
2022-07-25T05:55:11.478Z,22.60
2022-07-25T05:55:57.369Z,22.60
2022-07-25T05:56:43.439Z,22.60
2022-07-25T05:57:29.385Z,22.70
2022-07-25T05:58:16.019Z,22.80
2022-07-25T05:59:01.603Z,22.80
2022-07-25T05:59:47.440Z,22.90
2022-07-25T06:00:33.608Z,22.90
2022-07-25T06:01:19.456Z,23.00
2022-07-25T06:02:05.556Z,23.00
2022-07-25T06:02:51.660Z,23.00
2022-07-25T06:03:37.527Z,23.10
2022-07-25T06:04:26.874Z,23.10
2022-07-25T06:05:09.581Z,23.20
2022-07-25T06:05:55.568Z,23.20
2022-07-25T06:06:41.554Z,23.30
2022-07-25T06:07:27.596Z,23.40
2022-07-25T06:08:13.641Z,23.40
2022-07-25T06:08:59.583Z,23.50
2022-07-25T06:09:45.585Z,23.50
2022-07-25T06:10:31.551Z,23.50
2022-07-25T06:11:17.547Z,23.50
2022-07-25T06:12:03.591Z,23.50
2022-07-25T06:12:49.525Z,23.70
2022-07-25T06:13:35.602Z,23.70
2022-07-25T06:14:21.673Z,23.70
2022-07-25T06:15:07.681Z,23.70
2022-07-25T06:15:53.585Z,23.70
2022-07-25T06:16:39.603Z,23.60
2022-07-25T06:17:30.492Z,23.60
2022-07-25T06:18:11.622Z,23.60
2022-07-25T06:18:57.622Z,23.70
2022-07-25T06:19:43.656Z,23.70
2022-07-25T06:20:29.584Z,23.70
2022-07-25T06:21:16.039Z,23.70
2022-07-25T06:22:01.638Z,23.70
2022-07-25T06:22:47.689Z,23.70
2022-07-25T06:23:33.619Z,23.70
2022-07-25T06:24:19.609Z,23.70
2022-07-25T06:25:05.620Z,23.70
2022-07-25T06:25:51.665Z,23.70
2022-07-25T06:26:37.645Z,23.70
2022-07-25T06:27:29.015Z,23.90
2022-07-25T06:28:10.587Z,24.00
2022-07-25T06:28:55.756Z,24.00
2022-07-25T06:29:41.615Z,24.00
2022-07-25T06:30:27.693Z,24.00
2022-07-25T06:31:13.802Z,24.00
2022-07-25T06:31:59.715Z,24.10
2022-07-25T06:32:45.691Z,24.20
2022-07-25T06:33:31.654Z,24.40
2022-07-25T06:34:17.625Z,24.60
2022-07-25T06:35:03.616Z,24.60
2022-07-25T06:35:49.746Z,24.70
2022-07-25T06:36:35.637Z,24.70
2022-07-25T06:37:21.787Z,24.70
2022-07-25T06:38:07.673Z,24.90
2022-07-25T06:38:53.650Z,24.90
2022-07-25T06:39:43.834Z,25.00
2022-07-25T06:40:25.819Z,24.90
2022-07-25T06:41:11.797Z,24.90
2022-07-25T06:41:57.688Z,25.00
2022-07-25T06:42:43.679Z,25.10
2022-07-25T06:43:29.662Z,25.10
2022-07-25T06:44:16.062Z,25.00
2022-07-25T06:45:01.981Z,25.00
2022-07-25T06:45:47.799Z,25.00
2022-07-25T06:46:33.769Z,25.00
2022-07-25T06:47:19.650Z,25.10
2022-07-25T06:48:05.729Z,25.10
2022-07-25T06:48:51.809Z,25.10
2022-07-25T06:49:37.721Z,25.10
2022-07-25T06:50:23.685Z,25.00
2022-07-25T06:51:09.712Z,24.90
2022-07-25T06:51:55.752Z,24.90
2022-07-25T06:52:41.680Z,25.00
2022-07-25T06:53:27.726Z,25.10
2022-07-25T06:54:13.834Z,25.10
2022-07-25T06:56:36.756Z,25.60
2022-07-25T06:57:17.776Z,25.70
2022-07-25T06:58:03.696Z,25.80
2022-07-25T06:58:49.694Z,25.90
2022-07-25T06:59:35.704Z,26.00
2022-07-25T07:00:21.687Z,26.10
2022-07-25T07:01:07.803Z,26.30
2022-07-25T07:01:53.703Z,26.40
2022-07-25T07:02:39.740Z,26.50
2022-07-25T07:03:25.831Z,26.70
2022-07-25T07:04:11.769Z,26.70
2022-07-25T07:04:57.798Z,26.80
2022-07-25T07:05:43.824Z,26.90
2022-07-25T07:06:29.723Z,27.00
2022-07-25T07:07:15.935Z,27.20
2022-07-25T07:08:01.950Z,27.40
2022-07-25T07:08:47.746Z,27.40
2022-07-25T07:09:33.707Z,27.40
2022-07-25T07:10:19.733Z,27.30
2022-07-25T07:11:05.765Z,27.20
2022-07-25T07:11:51.816Z,27.10
2022-07-25T07:12:37.803Z,27.00
2022-07-25T07:13:24.518Z,27.00
2022-07-25T07:14:10.131Z,27.10
2022-07-25T07:14:55.806Z,27.10
2022-07-25T07:15:41.951Z,27.10
2022-07-25T07:16:27.919Z,27.10
2022-07-25T07:17:13.800Z,27.00
2022-07-25T07:17:59.790Z,27.00
2022-07-25T07:18:49.094Z,27.00
2022-07-25T07:19:31.792Z,27.00
2022-07-25T07:20:17.824Z,27.10
2022-07-25T07:21:03.731Z,27.30
2022-07-25T07:21:49.750Z,27.30
2022-07-25T07:22:35.768Z,27.50
2022-07-25T07:23:21.765Z,27.90
2022-07-25T07:24:23.256Z,28.00
2022-07-25T07:24:53.811Z,28.00
2022-07-25T07:25:39.804Z,28.30
2022-07-25T07:26:25.840Z,28.30
2022-07-25T07:27:11.813Z,28.30
2022-07-25T07:27:57.794Z,28.30
2022-07-25T07:28:43.802Z,28.30
2022-07-25T07:29:29.810Z,28.50
2022-07-25T07:30:18.552Z,28.70
2022-07-25T07:31:17.388Z,28.70
2022-07-25T07:31:47.921Z,28.60
2022-07-25T07:32:33.811Z,28.50
2022-07-25T07:33:19.737Z,28.50
2022-07-25T07:34:05.806Z,28.50
2022-07-25T07:34:51.928Z,28.50
2022-07-25T07:35:37.834Z,28.30
2022-07-25T07:36:23.813Z,28.20
2022-07-25T07:37:09.879Z,28.10
2022-07-25T07:37:55.895Z,28.00
2022-07-25T07:38:41.773Z,27.90
2022-07-25T07:39:27.856Z,27.80
2022-07-25T07:40:17.033Z,27.80
2022-07-25T07:40:59.866Z,27.70
2022-07-25T07:41:45.910Z,27.80
2022-07-25T07:42:31.832Z,27.80
2022-07-25T07:43:17.958Z,28.00
2022-07-25T07:44:03.844Z,28.20
2022-07-25T07:44:49.810Z,28.30
2022-07-25T07:45:35.886Z,28.30
2022-07-25T07:46:21.883Z,28.30
2022-07-25T07:47:07.858Z,28.40
2022-07-25T07:47:53.827Z,28.50
2022-07-25T07:48:39.932Z,28.70
2022-07-25T07:49:26.013Z,28.90
2022-07-25T07:50:11.987Z,29.00
2022-07-25T07:50:57.899Z,29.20
2022-07-25T07:51:43.875Z,29.30
2022-07-25T07:52:29.870Z,29.40
2022-07-25T07:53:15.973Z,29.30
2022-07-25T07:54:01.905Z,29.30
2022-07-25T07:54:47.922Z,29.30
2022-07-25T07:55:33.855Z,29.30
2022-07-25T07:56:19.915Z,29.10
2022-07-25T07:57:05.881Z,29.10
2022-07-25T07:57:51.993Z,29.00
2022-07-25T07:58:37.888Z,29.00
2022-07-25T07:59:23.927Z,29.00
2022-07-25T08:00:14.783Z,29.00
2022-07-25T08:00:56.087Z,29.00
2022-07-25T08:01:42.031Z,29.10
2022-07-25T08:02:27.950Z,29.20
2022-07-25T08:03:13.974Z,29.20
2022-07-25T08:03:59.967Z,29.20
2022-07-25T08:04:45.906Z,29.30
2022-07-25T08:05:31.982Z,29.60
2022-07-25T08:06:18.016Z,29.70
2022-07-25T08:07:03.923Z,29.70
2022-07-25T08:07:49.300Z,29.70
2022-07-25T08:08:35.928Z,29.90
2022-07-25T08:09:21.856Z,30.10
2022-07-25T08:10:07.951Z,30.40
2022-07-25T08:10:58.630Z,30.50
2022-07-25T08:11:40.012Z,30.50
2022-07-25T08:12:25.963Z,30.70
2022-07-25T08:13:11.992Z,30.70
2022-07-25T08:13:57.999Z,30.30
2022-07-25T08:14:43.912Z,30.10
2022-07-25T08:15:29.997Z,29.90
2022-07-25T08:16:16.269Z,29.60
2022-07-25T08:17:01.966Z,29.60
2022-07-25T08:17:48.018Z,29.60
2022-07-25T08:18:33.966Z,29.60
2022-07-25T08:19:19.965Z,29.80
2022-07-25T08:20:27.626Z,30.30
2022-07-25T08:20:51.993Z,30.60
2022-07-25T08:21:37.920Z,30.90
2022-07-25T08:22:23.948Z,30.90
2022-07-25T08:23:09.984Z,30.90
2022-07-25T08:23:55.965Z,30.50
2022-07-25T08:24:41.966Z,30.40
2022-07-25T08:25:27.861Z,30.10
2022-07-25T08:26:13.949Z,30.00
2022-07-25T08:26:59.858Z,30.00
2022-07-25T08:27:45.869Z,29.90
2022-07-25T08:28:31.945Z,29.80
2022-07-25T08:29:19.622Z,29.70
2022-07-25T08:30:03.995Z,29.70
2022-07-25T08:30:50.097Z,29.70
2022-07-25T08:31:36.073Z,29.70
2022-07-25T08:32:21.864Z,29.70
2022-07-25T08:33:07.984Z,29.70
2022-07-25T08:33:53.940Z,29.60
2022-07-25T08:34:39.923Z,29.60
2022-07-25T08:35:25.859Z,29.50
2022-07-25T08:36:11.934Z,29.50
2022-07-25T08:36:57.858Z,29.50
2022-07-25T08:37:43.932Z,29.60
2022-07-25T08:38:29.910Z,29.60
2022-07-25T08:39:15.882Z,29.60
2022-07-25T08:40:01.994Z,29.70
2022-07-25T08:40:47.900Z,29.80
2022-07-25T08:41:33.983Z,29.80
2022-07-25T08:42:19.934Z,29.90
2022-07-25T08:43:05.913Z,29.90
2022-07-25T08:43:52.009Z,30.10
2022-07-25T08:44:37.871Z,30.30
2022-07-25T08:45:23.934Z,30.50
2022-07-25T08:46:09.899Z,30.70
2022-07-25T08:46:56.000Z,30.70
2022-07-25T08:47:41.879Z,30.80
2022-07-25T08:48:27.998Z,30.70
2022-07-25T08:49:13.984Z,30.60
2022-07-25T08:50:04.226Z,30.40
2022-07-25T08:50:45.913Z,30.30
2022-07-25T08:51:32.012Z,30.20
2022-07-25T08:52:17.938Z,30.30
2022-07-25T08:53:31.443Z,30.30
2022-07-25T08:53:49.952Z,30.30
2022-07-25T08:54:35.967Z,30.30
2022-07-25T08:55:21.881Z,30.30
2022-07-25T08:56:12.612Z,30.40
2022-07-25T08:56:53.883Z,30.60
2022-07-25T08:57:39.941Z,30.70
2022-07-25T08:58:25.914Z,30.70
2022-07-25T08:59:11.941Z,30.80
2022-07-25T08:59:57.929Z,30.90
2022-07-25T09:00:44.038Z,31.10
2022-07-25T09:01:34.578Z,31.20
2022-07-25T09:02:16.295Z,31.20
2022-07-25T09:03:02.161Z,31.20
2022-07-25T09:03:48.045Z,31.10
2022-07-25T09:04:33.984Z,31.10
2022-07-25T09:05:19.976Z,31.10
2022-07-25T09:06:05.978Z,31.20
2022-07-25T09:06:52.049Z,31.30
2022-07-25T09:07:37.915Z,31.40
2022-07-25T09:08:23.938Z,31.40
2022-07-25T09:09:10.015Z,31.30
2022-07-25T09:09:55.916Z,31.20
2022-07-25T09:10:41.958Z,31.20
2022-07-25T09:11:28.006Z,31.30
2022-07-25T09:12:13.962Z,31.40
2022-07-25T09:12:59.936Z,31.40
2022-07-25T09:13:45.959Z,31.30
2022-07-25T09:14:31.974Z,31.30
2022-07-25T09:16:00.691Z,31.30
2022-07-25T09:17:21.950Z,31.70
2022-07-25T09:18:03.303Z,31.70
2022-07-25T09:18:49.271Z,31.70
2022-07-25T09:19:35.269Z,31.70
2022-07-25T09:20:21.282Z,31.60
2022-07-25T09:21:07.254Z,31.60
2022-07-25T09:21:53.265Z,31.80
2022-07-25T09:22:39.274Z,31.90
2022-07-25T09:23:24.951Z,31.90
2022-07-25T09:24:11.269Z,32.00
2022-07-25T09:24:57.308Z,32.00
2022-07-25T09:25:43.272Z,32.30
2022-07-25T09:26:29.289Z,32.40
2022-07-25T09:27:15.277Z,32.40
2022-07-25T09:28:01.357Z,32.50
2022-07-25T09:28:47.313Z,32.50
2022-07-25T09:29:33.324Z,32.60
2022-07-25T09:30:22.481Z,32.60
2022-07-25T09:31:04.097Z,32.70
2022-07-25T09:31:51.305Z,32.80
2022-07-25T09:32:37.288Z,32.90
2022-07-25T09:33:23.295Z,33.00
2022-07-25T09:34:09.718Z,32.90
2022-07-25T09:34:55.347Z,32.90
2022-07-25T09:35:41.399Z,32.90
2022-07-25T09:36:27.311Z,32.90
2022-07-25T09:37:13.353Z,33.00
2022-07-25T09:37:59.308Z,33.00
2022-07-25T09:38:45.320Z,33.10
2022-07-25T09:39:31.346Z,33.20
2022-07-25T09:39:49.550Z,33.20
2022-07-25T09:41:03.343Z,32.80
2022-07-25T09:41:49.365Z,32.80
2022-07-25T09:42:35.347Z,32.90
2022-07-25T09:43:21.329Z,32.90
2022-07-25T09:44:07.616Z,33.00
2022-07-25T09:44:53.327Z,33.20
2022-07-25T09:45:42.415Z,33.30
2022-07-25T09:46:25.449Z,33.50
2022-07-25T09:47:11.411Z,33.80
2022-07-25T09:47:57.359Z,34.00
2022-07-25T09:48:43.004Z,34.30
2022-07-25T09:49:29.378Z,34.40
2022-07-25T09:50:15.335Z,34.40
2022-07-25T09:51:01.361Z,34.50
2022-07-25T09:51:47.665Z,34.70
2022-07-25T10:00:32.507Z,34.20
2022-07-25T10:01:18.508Z,34.10
2022-07-25T10:02:04.518Z,34.10
2022-07-25T10:02:50.508Z,34.10
2022-07-25T10:03:36.408Z,34.10